Dati Storici

Data ora Umidita' aria (%) Temperatura aria (°C) Rad globale (W/m²) Gonioanemometro (°) Tacoanemometro (m/s) Pioggia (mm)
13-10-2012 14:40 75.9 % 16.47 249.118 38.788 3.693 0
13-10-2012 14:30 75 % 16.527 123.528 32.376 6.038 0
13-10-2012 14:20 74.5 % 16.912 94.375 73.274 2.673 0
13-10-2012 14:10 74 % 17.19 34.101 70.895 1.169 0
13-10-2012 14:00 73.2 % 17.23 100.985 18.914 3.253 0
13-10-2012 13:50 72.3 % 17.272 63.66 84.385 1.87 0
13-10-2012 13:40 71.9 % 17.361 62.011 96.762 2.498 0
13-10-2012 13:30 70.2 % 17.875 95.935 31.98 1.529 0
13-10-2012 13:20 67.3 % 18.519 183.53 16.161 1.875 0
13-10-2012 13:10 64.6 % 18.742 320.586 10.951 2.304 0
13-10-2012 13:00 65.8 % 18.486 338.785 59.519 2.28 0
13-10-2012 12:50 66.7 % 18.365 378.135 39.568 2.026 0
13-10-2012 12:40 67.5 % 18.274 267.453 117.794 1.422 0
13-10-2012 12:30 67.1 % 18.2 206.249 8.843 2.883 0
13-10-2012 12:20 66.8 % 18.275 229.762 42.413 2.687 0
13-10-2012 12:10 65.9 % 18.286 214.811 343.73 1.378 0
13-10-2012 12:00 64.7 % 18.43 241.834 92.873 3.154 0
13-10-2012 11:50 64.3 % 18.671 593.365 80.529 1.157 0
13-10-2012 11:40 64.7 % 18.582 517.422 4.366 2.983 0
13-10-2012 11:30 65.6 % 17.962 410.105 30.195 1.404 0

I dati sono presentati in modo automatico a scopo informativo. In seguito a verifica i dati possono subire modifiche o essere invalidati e non riportati negli archivi definitivi.